createdAt,value
2018-05-10T00:02:02.782Z,4.00
2018-05-10T00:04:30.300Z,4.13
2018-05-10T00:06:57.806Z,4.10
2018-05-10T00:09:25.454Z,4.33
2018-05-10T00:11:53.213Z,3.73
2018-05-10T00:14:20.727Z,4.00
2018-05-10T00:16:48.226Z,4.00
2018-05-10T00:19:15.885Z,4.33
2018-05-10T00:21:43.390Z,3.77
2018-05-10T00:24:10.905Z,4.13
2018-05-10T00:26:38.399Z,4.10
2018-05-10T00:29:06.941Z,3.97
2018-05-10T00:31:34.713Z,4.43
2018-05-10T00:34:02.218Z,4.40
2018-05-10T00:36:30.074Z,3.97
2018-05-10T00:38:58.359Z,4.40
2018-05-10T00:41:26.075Z,4.00
2018-05-10T00:43:53.565Z,4.10
2018-05-10T00:46:22.210Z,4.50
2018-05-10T00:48:49.938Z,5.00
2018-05-10T00:51:17.442Z,3.90
2018-05-10T00:53:45.177Z,4.27
2018-05-10T00:56:12.970Z,4.27
2018-05-10T00:58:40.474Z,4.40
2018-05-10T01:01:08.180Z,4.30
2018-05-10T01:03:35.941Z,4.37
2018-05-10T01:06:03.568Z,4.30
2018-05-10T01:08:31.161Z,4.30
2018-05-10T01:10:58.670Z,5.00
2018-05-10T01:13:26.396Z,3.70
2018-05-10T01:15:53.894Z,4.90
2018-05-10T01:18:21.598Z,4.20
2018-05-10T01:20:49.134Z,4.20
2018-05-10T01:23:16.818Z,4.10
2018-05-10T01:25:44.590Z,4.17
2018-05-10T01:28:12.100Z,4.37
2018-05-10T01:30:39.802Z,4.73
2018-05-10T01:33:07.334Z,4.63
2018-05-10T01:35:46.571Z,5.13
2018-05-10T01:38:14.084Z,4.27
2018-05-10T01:40:41.609Z,4.47
2018-05-10T01:43:09.123Z,5.33
2018-05-10T01:45:37.147Z,4.37
2018-05-10T01:48:04.683Z,4.13
2018-05-10T01:50:32.267Z,4.70
2018-05-10T01:52:59.814Z,4.27
2018-05-10T01:55:27.577Z,4.37
2018-05-10T01:57:55.097Z,4.63
2018-05-10T02:00:22.718Z,4.27
2018-05-10T02:02:50.257Z,4.93
2018-05-10T02:05:17.764Z,4.77
2018-05-10T02:07:45.463Z,4.33
2018-05-10T02:10:13.247Z,4.47
2018-05-10T02:12:41.000Z,4.43
2018-05-10T02:15:08.516Z,4.30
2018-05-10T02:17:36.199Z,4.70
2018-05-10T02:20:03.989Z,4.90
2018-05-10T02:22:31.495Z,5.10
2018-05-10T02:24:59.201Z,4.97
2018-05-10T02:27:26.982Z,4.80
2018-05-10T02:29:54.485Z,4.87
2018-05-10T02:32:21.986Z,5.73
2018-05-10T02:34:49.495Z,5.40
2018-05-10T02:37:17.074Z,5.27
2018-05-10T02:39:44.646Z,5.27
2018-05-10T02:42:12.290Z,5.00
2018-05-10T02:44:39.806Z,5.23
2018-05-10T02:47:08.091Z,4.80
2018-05-10T02:49:35.601Z,4.43
2018-05-10T02:52:03.118Z,4.87
2018-05-10T02:54:30.631Z,5.37
2018-05-10T02:56:58.338Z,4.73
2018-05-10T02:59:26.054Z,4.70
2018-05-10T03:01:53.815Z,4.97
2018-05-10T03:04:21.339Z,6.50
2018-05-10T03:06:49.008Z,5.00
2018-05-10T03:09:16.806Z,5.10
2018-05-10T03:11:44.566Z,5.00
2018-05-10T03:14:12.100Z,5.00
2018-05-10T03:16:39.605Z,5.30
2018-05-10T03:19:07.238Z,5.37
2018-05-10T03:21:34.759Z,5.33
2018-05-10T03:24:02.267Z,5.33
2018-05-10T03:26:29.787Z,5.40
2018-05-10T03:28:57.501Z,6.03
2018-05-10T03:31:25.143Z,5.57
2018-05-10T03:33:52.647Z,4.80
2018-05-10T03:36:20.166Z,6.40
2018-05-10T03:38:47.818Z,5.33
2018-05-10T03:41:15.334Z,5.93
2018-05-10T03:43:42.847Z,4.80
2018-05-10T03:46:10.369Z,5.83
2018-05-10T03:48:37.873Z,6.00
2018-05-10T03:51:05.393Z,5.60
2018-05-10T03:53:32.894Z,5.90
2018-05-10T03:56:01.241Z,4.90
2018-05-10T03:58:29.001Z,5.33
2018-05-10T04:00:56.509Z,5.27
2018-05-10T04:03:35.947Z,5.07
2018-05-10T04:06:16.290Z,5.60
2018-05-10T04:08:55.701Z,6.47
2018-05-10T04:11:26.150Z,4.80
2018-05-10T04:13:53.665Z,5.77
2018-05-10T04:16:21.167Z,5.40
2018-05-10T04:18:51.112Z,5.33
2018-05-10T04:21:18.786Z,6.07
2018-05-10T04:23:46.437Z,5.80
2018-05-10T04:26:14.711Z,6.27
2018-05-10T04:28:42.407Z,5.60
2018-05-10T04:31:09.929Z,5.40
2018-05-10T04:33:37.630Z,5.47
2018-05-10T04:36:05.393Z,5.60
2018-05-10T04:38:32.923Z,5.50
2018-05-10T04:41:00.426Z,5.57
2018-05-10T04:43:28.069Z,6.50
2018-05-10T04:45:55.588Z,6.10
2018-05-10T04:48:23.289Z,6.17
2018-05-10T04:50:50.805Z,6.00
2018-05-10T04:53:18.506Z,5.90
2018-05-10T04:55:46.029Z,6.70
2018-05-10T04:58:13.650Z,5.60
2018-05-10T05:00:42.108Z,6.43
2018-05-10T05:03:09.877Z,6.27
2018-05-10T05:05:37.638Z,5.73
2018-05-10T05:08:05.158Z,5.93
2018-05-10T05:10:32.849Z,5.60
2018-05-10T05:13:00.365Z,5.83
2018-05-10T05:15:28.038Z,6.30
2018-05-10T05:17:55.845Z,5.83
2018-05-10T05:20:23.350Z,6.13
2018-05-10T05:22:51.042Z,5.87
2018-05-10T05:25:18.826Z,6.20
2018-05-10T05:27:46.346Z,6.27
2018-05-10T05:30:14.007Z,6.67
2018-05-10T05:32:41.813Z,8.00
2018-05-10T05:35:09.310Z,6.10
2018-05-10T05:37:37.031Z,5.57
2018-05-10T05:40:04.789Z,6.20
2018-05-10T05:42:32.554Z,6.20
2018-05-10T05:45:00.329Z,6.40
2018-05-10T05:47:27.847Z,6.20
2018-05-10T05:49:55.535Z,6.00
2018-05-10T05:52:23.062Z,7.03
2018-05-10T05:54:50.722Z,7.43
2018-05-10T05:57:18.231Z,6.80
2018-05-10T05:59:45.854Z,6.77
2018-05-10T06:02:13.370Z,6.70
2018-05-10T06:04:40.906Z,6.17
2018-05-10T06:07:08.412Z,7.20
2018-05-10T06:09:36.087Z,6.53
2018-05-10T06:12:03.602Z,6.57
2018-05-10T06:14:31.340Z,7.90
2018-05-10T06:16:58.847Z,7.40
2018-05-10T06:19:26.554Z,7.30
2018-05-10T06:21:54.070Z,8.87
2018-05-10T06:24:21.741Z,6.93
2018-05-10T06:26:49.534Z,7.10
2018-05-10T06:29:17.042Z,7.60
2018-05-10T06:31:44.763Z,7.57
2018-05-10T06:34:12.276Z,7.90
2018-05-10T06:36:39.954Z,7.10
2018-05-10T06:39:07.466Z,7.17
2018-05-10T06:41:35.260Z,7.00
2018-05-10T06:44:02.727Z,7.77
2018-05-10T06:46:30.381Z,6.87
2018-05-10T06:48:57.889Z,9.00
2018-05-10T06:51:25.405Z,7.97
2018-05-10T06:53:53.414Z,7.03
2018-05-10T06:56:20.925Z,7.63
2018-05-10T06:58:48.598Z,8.40
2018-05-10T07:01:16.097Z,9.43
2018-05-10T07:03:43.626Z,8.23
2018-05-10T07:06:11.300Z,8.40
2018-05-10T07:08:38.818Z,8.53
2018-05-10T07:11:06.550Z,9.67
2018-05-10T07:13:34.839Z,9.60
2018-05-10T07:16:02.349Z,9.03
2018-05-10T07:18:29.867Z,9.00
2018-05-10T07:20:57.578Z,9.10
2018-05-10T07:23:25.345Z,9.30
2018-05-10T07:25:52.845Z,10.40
2018-05-10T07:28:20.368Z,13.67
2018-05-10T07:30:48.025Z,11.13
2018-05-10T07:33:15.773Z,10.93
2018-05-10T07:35:43.542Z,11.67
2018-05-10T07:38:11.064Z,10.10
2018-05-10T07:40:38.727Z,10.17
2018-05-10T07:43:06.236Z,9.53
2018-05-10T07:45:35.527Z,9.03
2018-05-10T07:48:03.038Z,7.57
2018-05-10T07:50:30.712Z,8.57
2018-05-10T07:52:58.210Z,9.03
2018-05-10T07:55:27.346Z,8.77
2018-05-10T07:57:54.861Z,10.40
2018-05-10T08:00:22.457Z,8.90
2018-05-10T08:02:50.188Z,7.13
2018-05-10T08:05:18.102Z,9.77
2018-05-10T08:07:45.698Z,8.33
2018-05-10T08:10:13.497Z,10.93
2018-05-10T08:12:40.991Z,8.47
2018-05-10T08:15:08.654Z,12.13
2018-05-10T08:17:36.162Z,8.07
2018-05-10T08:20:03.791Z,10.83
2018-05-10T08:22:31.301Z,8.00
2018-05-10T08:24:59.588Z,9.87
2018-05-10T08:27:37.009Z,8.73
2018-05-10T08:30:04.522Z,7.57
2018-05-10T08:32:32.251Z,8.80
2018-05-10T08:35:00.011Z,9.57
2018-05-10T08:37:27.562Z,13.30
2018-05-10T08:39:55.095Z,10.63
2018-05-10T08:42:22.596Z,8.00
2018-05-10T08:44:50.141Z,9.63
2018-05-10T08:47:17.664Z,11.13
2018-05-10T08:49:45.326Z,11.23
2018-05-10T08:52:12.830Z,8.60
2018-05-10T08:54:40.361Z,9.53
2018-05-10T08:57:07.867Z,25.90
2018-05-10T08:59:36.147Z,11.70
2018-05-10T09:02:03.870Z,10.37
2018-05-10T09:04:31.642Z,9.97
2018-05-10T09:06:59.154Z,10.50
2018-05-10T09:09:26.838Z,9.97
2018-05-10T09:11:54.330Z,8.70
2018-05-10T09:14:21.966Z,15.30
2018-05-10T09:16:49.473Z,10.40
2018-05-10T09:19:17.883Z,13.17
2018-05-10T09:21:45.674Z,9.93
2018-05-10T09:24:13.306Z,11.70
2018-05-10T09:26:40.794Z,8.43
2018-05-10T09:29:08.420Z,11.63
2018-05-10T09:31:36.099Z,9.53
2018-05-10T09:34:03.594Z,8.60
2018-05-10T09:36:31.096Z,13.50
2018-05-10T09:38:58.613Z,10.80
2018-05-10T09:41:26.123Z,12.20
2018-05-10T09:43:53.711Z,11.17
2018-05-10T09:46:21.209Z,13.10
2018-05-10T09:48:49.244Z,12.33
2018-05-10T09:51:18.534Z,11.30
2018-05-10T09:53:46.286Z,17.20
2018-05-10T09:56:13.804Z,11.23
2018-05-10T09:58:41.433Z,10.70
2018-05-10T10:01:08.933Z,10.73
2018-05-10T10:03:36.727Z,9.33
2018-05-10T10:06:04.241Z,10.97
2018-05-10T10:08:31.924Z,10.90
2018-05-10T10:10:59.733Z,11.60
2018-05-10T10:13:27.242Z,9.83
2018-05-10T10:15:54.815Z,9.30
2018-05-10T10:18:22.318Z,8.97
2018-05-10T10:20:49.837Z,9.37
2018-05-10T10:23:17.607Z,9.87
2018-05-10T10:25:45.376Z,10.67
2018-05-10T10:28:12.873Z,9.00
2018-05-10T10:30:40.590Z,10.07
2018-05-10T10:33:08.099Z,10.33
2018-05-10T10:35:35.650Z,9.60
2018-05-10T10:38:04.138Z,9.50
2018-05-10T10:40:32.566Z,10.50
2018-05-10T10:43:00.424Z,12.43
2018-05-10T10:45:28.161Z,10.60
2018-05-10T10:47:55.590Z,9.77
2018-05-10T10:50:23.285Z,11.70
2018-05-10T10:52:50.880Z,9.90
2018-05-10T10:55:18.311Z,9.03
2018-05-10T10:57:45.995Z,8.30
2018-05-10T11:00:13.510Z,7.67
2018-05-10T11:02:41.223Z,10.03
2018-05-10T11:05:08.737Z,9.30
2018-05-10T11:07:36.403Z,9.13
2018-05-10T11:10:04.209Z,9.10
2018-05-10T11:12:33.229Z,7.90
2018-05-10T11:15:00.739Z,8.43
2018-05-10T11:17:28.250Z,8.83
2018-05-10T11:19:56.526Z,9.27
2018-05-10T11:22:24.049Z,10.07
2018-05-10T11:24:51.568Z,9.43
2018-05-10T11:27:19.144Z,8.70
2018-05-10T11:29:46.603Z,7.90
2018-05-10T11:32:14.172Z,7.83
2018-05-10T11:34:41.846Z,9.50
2018-05-10T11:37:09.596Z,8.50
2018-05-10T11:39:37.372Z,9.60
2018-05-10T11:42:05.132Z,9.00
2018-05-10T11:44:32.978Z,9.10
2018-05-10T11:47:00.662Z,11.90
2018-05-10T11:49:28.208Z,13.87
2018-05-10T11:51:55.869Z,18.73
2018-05-10T11:54:23.605Z,11.67
2018-05-10T11:56:51.116Z,12.83
2018-05-10T11:59:18.630Z,13.53
2018-05-10T12:01:46.286Z,9.90
2018-05-10T12:04:13.798Z,9.60
2018-05-10T12:06:41.314Z,8.43
2018-05-10T12:09:08.841Z,8.60
2018-05-10T12:11:37.115Z,9.00
2018-05-10T12:14:04.806Z,8.63
2018-05-10T12:16:32.586Z,9.77
2018-05-10T12:19:00.101Z,9.27
2018-05-10T12:21:27.610Z,8.87
2018-05-10T12:23:55.246Z,9.20
2018-05-10T12:26:22.766Z,9.57
2018-05-10T12:28:50.296Z,12.83
2018-05-10T12:31:17.833Z,9.50
2018-05-10T12:33:45.475Z,9.80
2018-05-10T12:36:13.157Z,9.50
2018-05-10T12:38:40.662Z,10.00
2018-05-10T12:41:08.389Z,10.07
2018-05-10T12:43:36.154Z,12.90
2018-05-10T12:46:03.786Z,14.90
2018-05-10T12:48:31.338Z,20.10
2018-05-10T12:50:59.450Z,19.80
2018-05-10T12:53:28.470Z,30.00
2018-05-10T12:55:56.191Z,31.13
2018-05-10T12:58:23.960Z,24.83
2018-05-10T13:00:51.776Z,29.00
2018-05-10T13:03:19.221Z,33.57
2018-05-10T13:05:46.950Z,37.10
2018-05-10T13:08:14.597Z,40.70
2018-05-10T13:10:42.176Z,46.83
2018-05-10T13:13:09.954Z,42.67
2018-05-10T13:15:37.667Z,46.90
2018-05-10T13:18:05.454Z,50.70
2018-05-10T13:20:32.970Z,52.37
2018-05-10T13:23:00.490Z,51.63
2018-05-10T13:25:28.153Z,52.00
2018-05-10T13:27:55.890Z,47.53
2018-05-10T13:30:23.426Z,54.40
2018-05-10T13:32:51.123Z,51.23
2018-05-10T13:35:18.651Z,52.30
2018-05-10T13:37:46.337Z,50.60
2018-05-10T13:40:13.851Z,49.60
2018-05-10T13:42:41.507Z,46.43
2018-05-10T13:45:09.069Z,43.10
2018-05-10T13:47:36.801Z,39.80
2018-05-10T13:50:04.526Z,39.97
2018-05-10T13:52:32.047Z,36.20
2018-05-10T13:54:59.558Z,35.30
2018-05-10T13:57:27.218Z,31.90
2018-05-10T13:59:54.740Z,30.73
2018-05-10T14:02:22.413Z,30.40
2018-05-10T14:04:49.935Z,25.97
2018-05-10T14:07:17.480Z,25.80
2018-05-10T14:09:45.006Z,25.27
2018-05-10T14:12:12.535Z,24.23
2018-05-10T14:14:40.558Z,24.10
2018-05-10T14:17:08.098Z,25.83
2018-05-10T14:19:35.598Z,25.93
2018-05-10T14:22:03.128Z,25.20
2018-05-10T14:24:30.776Z,28.07
2018-05-10T14:26:58.550Z,26.13
2018-05-10T14:29:26.313Z,28.40
2018-05-10T14:31:53.849Z,28.87
2018-05-10T14:34:21.491Z,29.07
2018-05-10T14:36:49.781Z,31.70
2018-05-10T14:39:17.305Z,30.37
2018-05-10T14:41:44.825Z,32.40
2018-05-10T14:44:12.339Z,28.37
2018-05-10T14:46:40.097Z,22.73
2018-05-10T14:49:07.814Z,23.50
2018-05-10T14:51:35.343Z,22.93
2018-05-10T14:54:02.899Z,21.23
2018-05-10T14:56:30.770Z,21.40
2018-05-10T14:58:58.308Z,21.93
2018-05-10T15:01:25.970Z,21.40
2018-05-10T15:03:53.487Z,21.70
2018-05-10T15:06:21.016Z,20.50
2018-05-10T15:08:48.535Z,21.27
2018-05-10T15:11:16.051Z,19.53
2018-05-10T15:13:43.558Z,22.23
2018-05-10T15:16:11.088Z,20.03
2018-05-10T15:18:39.372Z,21.37
2018-05-10T15:21:07.189Z,18.80
2018-05-10T15:23:34.785Z,22.53
2018-05-10T15:26:02.318Z,23.57
2018-05-10T15:28:30.605Z,24.00
2018-05-10T15:30:59.011Z,24.43
2018-05-10T15:33:26.526Z,22.73
2018-05-10T15:35:54.078Z,23.47
2018-05-10T15:38:21.834Z,24.63
2018-05-10T15:40:49.351Z,26.07
2018-05-10T15:43:16.867Z,26.67
2018-05-10T15:45:44.385Z,25.67
2018-05-10T15:48:11.904Z,23.23
2018-05-10T15:50:39.410Z,24.83
2018-05-10T15:53:07.064Z,24.47
2018-05-10T15:55:34.555Z,23.13
2018-05-10T15:58:02.086Z,21.60
2018-05-10T16:00:29.599Z,21.00
2018-05-10T16:02:57.121Z,20.20
2018-05-10T16:05:24.755Z,18.90
2018-05-10T16:07:52.261Z,17.27
2018-05-10T16:10:20.015Z,14.00
2018-05-10T16:12:47.544Z,11.07
2018-05-10T16:15:15.230Z,11.10
2018-05-10T16:17:42.752Z,7.50
2018-05-10T16:20:10.261Z,6.50
2018-05-10T16:22:37.898Z,6.10
2018-05-10T16:25:06.310Z,4.90
2018-05-10T16:27:34.007Z,5.70
2018-05-10T16:30:01.798Z,5.93
2018-05-10T16:32:29.306Z,4.87
2018-05-10T16:34:57.018Z,4.60
2018-05-10T16:37:24.550Z,5.10
2018-05-10T16:39:52.785Z,3.67
2018-05-10T16:42:20.314Z,5.20
2018-05-10T16:44:48.096Z,4.80
2018-05-10T16:47:15.614Z,4.40
2018-05-10T16:49:43.290Z,4.73
2018-05-10T16:52:10.818Z,4.00
2018-05-10T16:54:38.322Z,3.80
2018-05-10T16:57:05.835Z,4.33
2018-05-10T16:59:33.422Z,3.87
2018-05-10T17:02:01.190Z,3.70
2018-05-10T17:04:28.715Z,3.47
2018-05-10T17:06:56.590Z,3.57
2018-05-10T17:09:24.181Z,3.80
2018-05-10T17:11:51.926Z,3.90
2018-05-10T17:14:19.694Z,3.10
2018-05-10T17:16:47.211Z,3.80
2018-05-10T17:19:14.718Z,3.70
2018-05-10T17:21:42.231Z,3.77
2018-05-10T17:24:09.834Z,4.17
2018-05-10T17:26:37.598Z,4.10
2018-05-10T17:29:05.114Z,3.60
2018-05-10T17:31:32.617Z,3.93
2018-05-10T17:34:00.126Z,3.33
2018-05-10T17:36:27.628Z,2.90
2018-05-10T17:38:55.164Z,4.67
2018-05-10T17:41:22.954Z,4.17
2018-05-10T17:43:50.471Z,4.63
2018-05-10T17:46:17.982Z,3.97
2018-05-10T17:48:45.599Z,4.30
2018-05-10T17:51:13.098Z,4.40
2018-05-10T17:53:40.623Z,3.87
2018-05-10T17:56:08.215Z,3.90
2018-05-10T17:58:35.764Z,3.70
2018-05-10T18:01:03.351Z,4.20
2018-05-10T18:03:30.978Z,4.17
2018-05-10T18:05:58.748Z,4.30
2018-05-10T18:08:26.502Z,4.50
2018-05-10T18:10:54.010Z,4.30
2018-05-10T18:13:21.539Z,3.57
2018-05-10T18:15:49.146Z,5.10
2018-05-10T18:18:16.666Z,5.27
2018-05-10T18:20:44.170Z,5.57
2018-05-10T18:23:11.743Z,4.67
2018-05-10T18:25:40.199Z,4.90
2018-05-10T18:28:07.717Z,5.33
2018-05-10T18:30:35.544Z,5.00
2018-05-10T18:33:03.050Z,5.30
2018-05-10T18:35:31.606Z,4.40
2018-05-10T18:37:59.126Z,4.93
2018-05-10T18:40:26.666Z,4.10
2018-05-10T18:42:54.198Z,4.93
2018-05-10T18:45:21.730Z,4.90
2018-05-10T18:47:49.234Z,4.20
2018-05-10T18:50:16.961Z,4.93
2018-05-10T18:52:44.470Z,5.07
2018-05-10T18:55:12.124Z,4.60
2018-05-10T18:57:39.622Z,4.47
2018-05-10T19:00:07.418Z,5.07
2018-05-10T19:02:34.935Z,4.70
2018-05-10T19:05:02.585Z,5.53
2018-05-10T19:07:30.414Z,4.87
2018-05-10T19:09:57.906Z,4.97
2018-05-10T19:12:25.609Z,5.40
2018-05-10T19:14:53.139Z,5.70
2018-05-10T19:17:20.818Z,5.97
2018-05-10T19:19:48.357Z,5.10
2018-05-10T19:22:15.860Z,4.30
2018-05-10T19:24:43.498Z,4.87
2018-05-10T19:27:11.011Z,4.50
2018-05-10T19:29:38.714Z,5.53
2018-05-10T19:32:06.224Z,5.50
2018-05-10T19:34:33.736Z,5.10
2018-05-10T19:37:01.984Z,4.10
2018-05-10T19:39:29.490Z,4.37
2018-05-10T19:41:57.231Z,4.80
2018-05-10T19:44:24.767Z,4.43
2018-05-10T19:46:52.258Z,5.07
2018-05-10T19:49:19.783Z,4.27
2018-05-10T19:51:47.364Z,5.07
2018-05-10T19:54:14.871Z,4.70
2018-05-10T19:56:42.389Z,4.50
2018-05-10T19:59:09.899Z,5.83
2018-05-10T20:01:37.485Z,4.70
2018-05-10T20:04:05.008Z,4.87
2018-05-10T20:06:32.555Z,5.73
2018-05-10T20:09:00.830Z,5.27
2018-05-10T20:11:28.333Z,4.63
2018-05-10T20:13:55.844Z,5.53
2018-05-10T20:16:24.122Z,5.50
2018-05-10T20:18:51.637Z,5.40
2018-05-10T20:21:19.290Z,4.23
2018-05-10T20:23:47.050Z,4.40
2018-05-10T20:26:14.814Z,5.07
2018-05-10T20:28:42.324Z,4.60
2018-05-10T20:31:10.038Z,3.90
2018-05-10T20:33:37.545Z,5.43
2018-05-10T20:36:05.253Z,4.87
2018-05-10T20:38:32.753Z,4.50
2018-05-10T20:41:00.473Z,4.87
2018-05-10T20:43:28.238Z,5.03
2018-05-10T20:45:56.006Z,5.40
2018-05-10T20:48:23.510Z,5.90
2018-05-10T20:50:51.222Z,6.03
2018-05-10T20:53:18.744Z,5.37
2018-05-10T20:55:46.279Z,4.87
2018-05-10T20:58:14.554Z,5.07
2018-05-10T21:00:42.070Z,5.13
2018-05-10T21:05:42.686Z,5.53
2018-05-10T21:08:10.227Z,4.43
2018-05-10T21:10:37.938Z,4.30
2018-05-10T21:13:05.846Z,5.17
2018-05-10T21:15:34.574Z,3.93
2018-05-10T21:18:02.151Z,4.37
2018-05-10T21:20:29.692Z,4.63
2018-05-10T21:22:58.451Z,5.20
2018-05-10T21:25:25.990Z,5.20
2018-05-10T21:27:53.489Z,5.57
2018-05-10T21:30:21.289Z,5.63
2018-05-10T21:32:48.872Z,4.33
2018-05-10T21:35:16.504Z,4.30
2018-05-10T21:37:44.167Z,5.50
2018-05-10T21:40:11.756Z,4.93
2018-05-10T21:42:39.396Z,4.80
2018-05-10T21:45:06.934Z,4.23
2018-05-10T21:47:34.444Z,4.83
2018-05-10T21:50:04.784Z,4.90
2018-05-10T21:52:32.383Z,4.40
2018-05-10T21:54:59.971Z,4.73
2018-05-10T21:57:27.506Z,5.03
2018-05-10T21:59:55.223Z,4.97
2018-05-10T22:02:23.750Z,5.80
2018-05-10T22:04:51.254Z,5.37
2018-05-10T22:07:19.679Z,5.37
2018-05-10T22:09:47.393Z,5.70
2018-05-10T22:12:15.251Z,6.30
2018-05-10T22:14:42.826Z,5.53
2018-05-10T22:17:10.338Z,5.70
2018-05-10T22:19:37.960Z,6.13
2018-05-10T22:22:05.527Z,5.60
2018-05-10T22:24:33.113Z,6.40
2018-05-10T22:27:00.530Z,6.40
2018-05-10T22:29:28.030Z,5.80
2018-05-10T22:31:55.757Z,7.63
2018-05-10T22:34:23.536Z,6.30
2018-05-10T22:36:51.029Z,5.63
2018-05-10T22:39:18.566Z,6.83
2018-05-10T22:41:46.202Z,6.33
2018-05-10T22:44:13.728Z,6.30
2018-05-10T22:46:41.426Z,6.37
2018-05-10T22:49:08.925Z,6.00
2018-05-10T22:51:36.646Z,6.10
2018-05-10T22:54:04.158Z,6.20
2018-05-10T22:56:31.861Z,7.93
2018-05-10T22:58:59.372Z,6.30
2018-05-10T23:01:27.054Z,6.90
2018-05-10T23:03:54.562Z,5.60
2018-05-10T23:06:22.074Z,7.13
2018-05-10T23:08:49.754Z,6.70
2018-05-10T23:11:17.270Z,6.70
2018-05-10T23:13:44.779Z,6.37
2018-05-10T23:16:12.302Z,6.53
2018-05-10T23:18:39.886Z,6.90
2018-05-10T23:21:07.513Z,7.00
2018-05-10T23:23:35.018Z,6.87
2018-05-10T23:26:02.541Z,7.47
2018-05-10T23:28:30.326Z,5.90
2018-05-10T23:30:57.842Z,6.67
2018-05-10T23:33:25.545Z,6.17
2018-05-10T23:35:53.084Z,7.03
2018-05-10T23:38:20.590Z,6.03
2018-05-10T23:40:48.142Z,6.30
2018-05-10T23:43:15.657Z,5.97
2018-05-10T23:45:43.450Z,5.97
2018-05-10T23:48:11.391Z,5.77
2018-05-10T23:50:38.974Z,5.90
2018-05-10T23:53:06.494Z,5.17
2018-05-10T23:55:34.117Z,5.27
2018-05-10T23:58:02.517Z,4.30
